Denia, Spain
Current Conditions -  °F | °C
As of 11:00 AM on Saturday 22 Nov 2014 (Local Time) from LEAL Reporting Station
Clear Clear  
Wind Chill: 66°   Ceiling: Unl
Heat Index: 66°   Visibility: 6mi
Dew Point: 54°   Wind: 3mph
Humidity: 64%   Direction: 30°NNE
Pressure: 30.03"   Gusts: NA
Location:  38.84°N, 0.11°E
Report Text: LEAL 221000Z 03003KT 340V060 CAVOK 19/12 Q1017 NOSIG
Loading
Personal Weather Stations






























Interactive Weather Map New forecast layout! Learn more

10-Day Weather Forecast

Advertisements
Track Severe Weather on mobile